Terminal Aerodrome Forecast
Issued by NWS

Home | Current Version | Previous Version | Text Only | Print | Product List | Glossary On
Versions: 1 2 3 4 5 6 7 8 9 10 11 12 13 14 15 16 17 18
000
FTUS43 KDVN 162300
TAFCID
TAF
KCID 162320Z 1700/1724 17015G25KT P6SM BKN080
     FM170400 17013KT P6SM VCSH BKN050
     FM171000 26010KT P6SM SCT020 BKN150
     FM171400 30012KT P6SM SCT040 BKN150=

USA.gov is the U.S. government's official web portal to all federal, state and local government web resources and services.